createdAt,value
2019-03-17T00:00:03.154Z,80.85
2019-03-17T00:05:10.489Z,81.67
2019-03-17T00:10:10.231Z,81.4
2019-03-17T00:15:08.306Z,81.45
2019-03-17T00:20:09.348Z,81.73
2019-03-17T00:25:14.120Z,81.62
2019-03-17T00:30:03.211Z,81.12
2019-03-17T00:35:07.191Z,80.84
2019-03-17T00:40:07.005Z,80.64
2019-03-17T00:45:03.502Z,81.12
2019-03-17T00:50:05.900Z,80.98
2019-03-17T00:55:06.377Z,80.15
2019-03-17T01:00:03.478Z,80.81
2019-03-17T01:05:05.899Z,80.83
2019-03-17T01:10:07.263Z,80.8
2019-03-17T01:15:04.149Z,79.7
2019-03-17T01:20:05.150Z,80.38
2019-03-17T01:25:07.115Z,79.57
2019-03-17T01:30:03.823Z,79.85
2019-03-17T01:35:11.212Z,80.01
2019-03-17T01:40:07.141Z,79.97
2019-03-17T01:45:04.026Z,79.51
2019-03-17T01:50:05.940Z,79.97
2019-03-17T01:55:05.470Z,80.02
2019-03-17T02:00:05.098Z,79.98
2019-03-17T02:05:20.854Z,79.12
2019-03-17T02:10:18.121Z,78.71
2019-03-17T02:15:08.156Z,77.72
2019-03-17T02:20:08.675Z,78.48
2019-03-17T02:25:04.566Z,77.62
2019-03-17T02:30:06.169Z,78.6
2019-03-17T02:35:06.578Z,78.51
2019-03-17T02:40:07.946Z,78.49
2019-03-17T02:45:03.069Z,78.91
2019-03-17T02:50:07.636Z,79.22
2019-03-17T02:55:07.568Z,78.87
2019-03-17T03:00:03.567Z,79.91
2019-03-17T03:05:07.270Z,79.07
2019-03-17T03:10:07.041Z,78.88
2019-03-17T03:15:03.814Z,78.72
2019-03-17T03:20:11.866Z,78.51
2019-03-17T03:25:07.653Z,78.16
2019-03-17T03:30:12.221Z,78.23
2019-03-17T03:35:11.587Z,77.74
2019-03-17T03:40:09.367Z,78.58
2019-03-17T03:45:09.588Z,78.06
2019-03-17T03:50:10.056Z,77.92
2019-03-17T03:55:05.641Z,77.97
2019-03-17T04:00:07.035Z,78.65
2019-03-17T04:05:09.394Z,78.97
2019-03-17T04:10:06.118Z,79.16
2019-03-17T04:15:06.513Z,79.96
2019-03-17T04:20:09.492Z,80.28
2019-03-17T04:25:08.259Z,80.61
2019-03-17T04:30:03.919Z,80.38
2019-03-17T04:35:08.455Z,80.48
2019-03-17T04:40:07.809Z,80.47
2019-03-17T04:45:04.464Z,80.28
2019-03-17T04:50:07.682Z,79.93
2019-03-17T04:55:06.558Z,79.96
2019-03-17T05:00:03.104Z,79.68
2019-03-17T05:05:07.408Z,80.23
2019-03-17T05:10:03.675Z,80.04
2019-03-17T05:15:08.010Z,80.01
2019-03-17T05:20:07.163Z,79.5
2019-03-17T05:25:08.177Z,80.49
2019-03-17T05:30:02.733Z,80.83
2019-03-17T05:35:08.240Z,81
2019-03-17T05:40:06.614Z,80.33
2019-03-17T05:45:03.088Z,80.98
2019-03-17T05:50:07.765Z,80.56
2019-03-17T05:55:07.454Z,80.79
2019-03-17T06:00:02.997Z,81.1
2019-03-17T06:05:06.009Z,81.76
2019-03-17T06:10:02.718Z,82.37
2019-03-17T06:15:07.355Z,82.24
2019-03-17T06:20:09.259Z,82.47
2019-03-17T06:25:08.039Z,83.49
2019-03-17T06:30:02.613Z,84.04
2019-03-17T06:35:05.855Z,83.97
2019-03-17T06:40:06.047Z,84.85
2019-03-17T06:45:02.608Z,84.66
2019-03-17T06:50:04.419Z,84.38
2019-03-17T06:55:04.210Z,84.63
2019-03-17T07:00:02.696Z,83.9
2019-03-17T07:05:04.661Z,83.65
2019-03-17T07:10:04.417Z,84.42
2019-03-17T07:15:03.987Z,85.05
2019-03-17T07:20:06.604Z,86.68
2019-03-17T07:25:08.110Z,86.59
2019-03-17T07:30:03.724Z,87.01
2019-03-17T07:35:07.315Z,86.4
2019-03-17T07:40:09.149Z,87.67
2019-03-17T07:45:03.905Z,87.18
2019-03-17T07:50:07.647Z,87.84
2019-03-17T07:55:09.728Z,87.61
2019-03-17T08:00:04.616Z,86.74
2019-03-17T08:05:08.401Z,87.24
2019-03-17T08:10:09.484Z,87.65
2019-03-17T08:15:06.266Z,89.46
2019-03-17T08:20:09.306Z,88.69
2019-03-17T08:25:07.810Z,94.17
2019-03-17T08:30:04.358Z,96.21
2019-03-17T08:35:09.027Z,97.1
2019-03-17T08:40:07.251Z,97.15
2019-03-17T08:45:03.902Z,97.92
2019-03-17T08:50:08.141Z,97.98
2019-03-17T08:55:07.492Z,97.89
2019-03-17T09:00:04.119Z,97.57
2019-03-17T09:05:05.995Z,97.46
2019-03-17T09:10:06.722Z,96.91
2019-03-17T09:15:04.226Z,95.8
2019-03-17T09:20:06.714Z,95.27
2019-03-17T09:25:09.842Z,93.51
2019-03-17T09:30:04.340Z,93.8
2019-03-17T09:35:06.755Z,93.3
2019-03-17T09:40:09.814Z,91.5
2019-03-17T09:45:04.546Z,90.9
2019-03-17T09:50:07.014Z,90.11
2019-03-17T09:55:09.138Z,90.14
2019-03-17T10:00:03.802Z,89.16
2019-03-17T10:05:09.999Z,88.19
2019-03-17T10:10:06.987Z,86.71
2019-03-17T10:15:03.791Z,86.99
2019-03-17T10:20:09.701Z,86.14
2019-03-17T10:25:08.881Z,85.31
2019-03-17T10:30:03.782Z,83.27
2019-03-17T10:35:07.026Z,81.96
2019-03-17T10:40:07.169Z,81.31
2019-03-17T10:45:03.920Z,81.15
2019-03-17T10:50:08.011Z,81.76
2019-03-17T10:55:05.714Z,80.99
2019-03-17T11:00:04.370Z,80.23
2019-03-17T11:05:06.527Z,81.38
2019-03-17T11:10:07.165Z,81.54
2019-03-17T11:15:02.773Z,82.54
2019-03-17T11:20:06.514Z,81.95
2019-03-17T11:25:07.453Z,81.39
2019-03-17T11:30:03.014Z,78.41
2019-03-17T11:35:06.139Z,75.93
2019-03-17T11:40:06.874Z,76.84
2019-03-17T11:45:03.359Z,71.87
2019-03-17T11:50:06.860Z,73.09
2019-03-17T11:55:07.405Z,72.35
2019-03-17T12:00:02.894Z,70.15
2019-03-17T12:05:07.547Z,71.87
2019-03-17T12:10:08.379Z,71.99
2019-03-17T12:15:02.928Z,68.67
2019-03-17T12:20:06.584Z,70.19
2019-03-17T12:25:11.521Z,66.97
2019-03-17T12:30:03.244Z,65.69
2019-03-17T12:35:07.317Z,61.2
2019-03-17T12:40:08.205Z,58.51
2019-03-17T12:45:02.769Z,60.15
2019-03-17T12:50:07.791Z,62.1
2019-03-17T12:55:06.352Z,60.38
2019-03-17T13:00:02.905Z,61.74
2019-03-17T13:05:07.341Z,60.43
2019-03-17T13:10:19.310Z,61.81
2019-03-17T13:15:02.850Z,59.25
2019-03-17T13:20:04.558Z,58.78
2019-03-17T13:25:04.750Z,58.73
2019-03-17T13:30:03.315Z,57.4
2019-03-17T13:35:04.450Z,57.54
2019-03-17T13:40:06.400Z,57.34
2019-03-17T13:45:03.605Z,56.4
2019-03-17T13:50:05.987Z,57.94
2019-03-17T13:55:05.331Z,57.13
2019-03-17T14:00:03.394Z,60.39
2019-03-17T14:05:08.208Z,59.67
2019-03-17T14:10:15.604Z,64
2019-03-17T14:15:04.229Z,69.19
2019-03-17T14:20:05.653Z,70.06
2019-03-17T14:25:07.903Z,69.86
2019-03-17T14:30:04.542Z,70.18
2019-03-17T14:35:06.336Z,71.33
2019-03-17T14:40:07.055Z,73.98
2019-03-17T14:45:03.685Z,74.57
2019-03-17T14:50:07.004Z,76.1
2019-03-17T14:55:06.864Z,75.96
2019-03-17T15:00:04.401Z,75.5
2019-03-17T15:05:07.645Z,77.05
2019-03-17T15:10:08.618Z,76.49
2019-03-17T15:15:04.221Z,77.39
2019-03-17T15:20:06.601Z,76.84
2019-03-17T15:25:10.164Z,75.83
2019-03-17T15:30:03.879Z,78.42
2019-03-17T15:35:07.383Z,83.65
2019-03-17T15:40:09.606Z,86.4
2019-03-17T15:45:05.667Z,88.04
2019-03-17T15:50:09.769Z,89.66
2019-03-17T15:55:07.764Z,90.34
2019-03-17T16:00:04.379Z,90.13
2019-03-17T16:05:10.173Z,89.83
2019-03-17T16:10:07.210Z,89.94
2019-03-17T16:15:03.878Z,90.34
2019-03-17T16:20:07.951Z,90.18
2019-03-17T16:25:07.788Z,90
2019-03-17T16:30:04.333Z,89.73
2019-03-17T16:35:07.535Z,89.44
2019-03-17T16:40:06.248Z,87.69
2019-03-17T16:45:03.879Z,87.38
2019-03-17T16:50:07.906Z,87.62
2019-03-17T16:55:08.097Z,89.04
2019-03-17T17:00:03.907Z,90.42
2019-03-17T17:05:08.789Z,89.02
2019-03-17T17:10:06.521Z,87.41
2019-03-17T17:15:04.179Z,88.04
2019-03-17T17:20:06.008Z,88.33
2019-03-17T17:25:07.205Z,88.45
2019-03-17T17:30:02.768Z,88.47
2019-03-17T17:35:06.510Z,89.17
2019-03-17T17:40:07.109Z,89.61
2019-03-17T17:45:02.684Z,88.94
2019-03-17T17:50:06.374Z,86.68
2019-03-17T17:55:06.977Z,85.79
2019-03-17T18:00:02.566Z,85.89
2019-03-17T18:05:07.013Z,86.61
2019-03-17T18:10:06.641Z,87.39
2019-03-17T18:15:03.186Z,88.24
2019-03-17T18:20:05.786Z,89.56
2019-03-17T18:25:07.801Z,88.2
2019-03-17T18:30:03.280Z,88.43
2019-03-17T18:35:06.228Z,88.8
2019-03-17T18:40:06.952Z,88.62
2019-03-17T18:45:02.472Z,88.82
2019-03-17T18:50:19.028Z,89.84
2019-03-17T18:55:09.244Z,90.94
2019-03-17T19:00:05.087Z,91.54
2019-03-17T19:05:07.909Z,92.27
2019-03-17T19:10:09.972Z,92.77
2019-03-17T19:15:03.723Z,92.87
2019-03-17T19:20:09.504Z,93.54
2019-03-17T19:25:08.327Z,93.97
2019-03-17T19:30:02.854Z,94.03
2019-03-17T19:35:09.174Z,94.59
2019-03-17T19:40:07.209Z,94.57
2019-03-17T19:45:02.779Z,94.99
2019-03-17T19:50:06.207Z,94.92
2019-03-17T19:55:05.410Z,94.83
2019-03-17T20:00:02.884Z,94.76
2019-03-17T20:05:06.995Z,94.39
2019-03-17T20:10:05.778Z,93.78
2019-03-17T20:15:03.231Z,93.81
2019-03-17T20:20:05.831Z,93.53
2019-03-17T20:25:06.034Z,92.79
2019-03-17T20:30:03.068Z,92.4
2019-03-17T20:35:05.573Z,91.93
2019-03-17T20:40:13.082Z,90.97
2019-03-17T20:45:06.065Z,90.45
2019-03-17T20:50:08.569Z,90.42
2019-03-17T20:55:10.226Z,89.93
2019-03-17T21:00:10.564Z,89.89
2019-03-17T21:05:10.216Z,89.96
2019-03-17T21:10:10.533Z,89.81
2019-03-17T21:15:12.441Z,89.8
2019-03-17T21:20:11.174Z,89.75
2019-03-17T21:25:10.015Z,89.72
2019-03-17T21:30:12.090Z,89.63
2019-03-17T21:35:15.962Z,89.45
2019-03-17T21:40:08.973Z,89.46
2019-03-17T21:45:15.240Z,89.64
2019-03-17T21:50:16.030Z,88.91
2019-03-17T21:55:11.201Z,88.17
2019-03-17T22:00:13.240Z,88.84
2019-03-17T22:05:12.016Z,88.43
2019-03-17T22:10:05.632Z,88.84
2019-03-17T22:15:11.025Z,88.34
2019-03-17T22:20:13.046Z,88.5
2019-03-17T22:25:13.092Z,88.29
2019-03-17T22:30:11.550Z,88.14
2019-03-17T22:35:13.271Z,87.75
2019-03-17T22:40:11.722Z,87.28
2019-03-17T22:45:10.305Z,87.52
2019-03-17T22:50:12.300Z,87.79
2019-03-17T22:55:16.104Z,88.23
2019-03-17T23:00:14.215Z,88.75
2019-03-17T23:05:19.092Z,89.24
2019-03-17T23:10:15.409Z,89.21
2019-03-17T23:15:13.614Z,89.4
2019-03-17T23:20:13.306Z,88.98
2019-03-17T23:25:11.480Z,88.59
2019-03-17T23:30:11.657Z,88.55
2019-03-17T23:35:11.498Z,89.12
2019-03-17T23:40:15.289Z,89.32
2019-03-17T23:45:15.185Z,90.37
2019-03-17T23:50:17.440Z,90.19
2019-03-17T23:55:13.454Z,90.44
